Time;durP1;ratioP1;P1;durP2;ratioP2;P2;SDS_P1;SDS_P2;PMS_P1;PMS_P2;Temp;Humidity;BMP_temperature;BMP_pressure;BME280_temperature;BME280_humidity;BME280_pressure;Samples;Min_cycle;Max_cycle;Signal;HPM_P1;HPM_P2
2021/08/26 00:00:31;;;;;;;22.50;12.18;;;;;;;14.32;75.96;99457.63;5113787;28;20055;-75
2021/08/26 00:05:48;;;;;;;23.35;11.82;;;;;;;14.32;76.58;99440.84;5113352;28;20043;-75
2021/08/26 00:08:15;;;;;;;18.60;11.35;;;;;;;14.23;77.13;99427.44;5113533;28;20122;-74
2021/08/26 00:10:41;;;;;;;21.90;11.43;;;;;;;14.21;77.57;99423.25;5112859;28;20054;-75
2021/08/26 00:13:08;;;;;;;24.88;11.45;;;;;;;14.18;77.44;99416.41;5113443;28;20043;-76
2021/08/26 00:15:34;;;;;;;19.27;11.23;;;;;;;14.24;77.54;99422.94;5112900;28;20039;-76
2021/08/26 00:18:00;;;;;;;20.60;11.07;;;;;;;14.24;76.93;99404.31;5113250;28;20043;-78
2021/08/26 00:20:26;;;;;;;24.23;11.10;;;;;;;14.29;77.55;99406.53;5112417;28;20055;-75
2021/08/26 00:22:52;;;;;;;22.63;10.35;;;;;;;14.26;77.09;99420.97;5113784;28;20046;-77
2021/08/26 00:25:18;;;;;;;14.80;9.52;;;;;;;14.21;76.99;99428.56;5113846;28;20160;-76
2021/08/26 00:27:44;;;;;;;18.75;9.93;;;;;;;14.20;76.89;99427.69;5111599;28;20400;-78
2021/08/26 00:30:10;;;;;;;17.33;9.65;;;;;;;14.17;76.92;99428.00;5113048;28;20058;-78
2021/08/26 00:32:36;;;;;;;17.58;8.80;;;;;;;14.17;76.80;99411.22;5095681;28;20081;-83
2021/08/26 00:35:02;;;;;;;16.83;9.88;;;;;;;14.20;76.96;99421.56;5112702;28;20725;-81
2021/08/26 00:37:28;;;;;;;15.73;8.73;;;;;;;14.18;76.69;99427.03;5114119;28;20419;-78
2021/08/26 00:39:56;;;;;;;14.88;8.77;;;;;;;14.16;76.62;99423.69;5132454;27;20700;-77
2021/08/26 00:42:24;;;;;;;13.90;8.02;;;;;;;14.21;76.34;99423.25;5132479;27;20045;-76
2021/08/26 00:44:52;;;;;;;14.27;8.23;;;;;;;14.19;76.65;99427.84;5131782;27;20391;-73
2021/08/26 00:47:17;;;;;;;14.65;8.77;;;;;;;14.13;76.70;99420.47;5133062;27;20491;-78
2021/08/26 00:49:43;;;;;;;19.77;8.70;;;;;;;14.13;76.88;99420.47;5131945;27;20035;-76
2021/08/26 00:52:12;;;;;;;16.38;7.95;;;;;;;14.16;76.74;99415.69;5114426;28;20043;-77
2021/08/26 00:54:38;;;;;;;15.43;7.80;;;;;;;14.15;76.71;99415.84;5133275;27;20039;-79
2021/08/26 00:57:04;;;;;;;15.40;7.97;;;;;;;14.10;76.78;99418.94;5133760;27;20118;-74
2021/08/26 00:59:32;;;;;;;13.80;8.45;;;;;;;14.10;77.04;99415.47;5133328;27;20035;-75
2021/08/26 01:02:22;;;;;;;15.43;8.70;;;;;;;14.05;77.19;99414.06;5132998;27;20047;-75
2021/08/26 01:04:51;;;;;;;15.85;8.68;;;;;;;14.03;77.05;99407.22;5132276;28;20506;-76
2021/08/26 01:07:30;;;;;;;13.00;7.38;;;;;;;14.02;77.33;99403.72;5133242;27;20047;-76
2021/08/26 01:10:07;;;;;;;13.63;8.05;;;;;;;14.05;77.09;99397.28;5133363;28;20053;-76
2021/08/26 01:12:34;;;;;;;17.52;8.70;;;;;;;13.98;77.41;99397.03;5133635;27;20147;-79
2021/08/26 01:15:00;;;;;;;29.95;7.97;;;;;;;13.98;77.71;99409.47;5134087;27;20147;-74
2021/08/26 01:17:29;;;;;;;17.45;8.32;;;;;;;14.02;77.69;99403.72;5131951;28;20778;-77
2021/08/26 01:20:00;;;;;;;16.35;8.07;;;;;;;14.03;77.64;99404.56;5133315;27;20083;-76
2021/08/26 01:22:35;;;;;;;16.77;8.13;;;;;;;13.99;77.55;99404.00;5132219;28;20516;-80
2021/08/26 01:25:22;;;;;;;20.20;9.38;;;;;;;13.99;77.81;99409.34;5133412;27;20076;-79
2021/08/26 01:27:57;;;;;;;23.02;9.30;;;;;;;13.99;77.89;99409.34;5131966;28;20395;-76
2021/08/26 01:30:26;;;;;;;22.27;8.73;;;;;;;13.97;78.35;99399.81;5131835;28;20195;-76
2021/08/26 01:32:57;;;;;;;27.20;9.02;;;;;;;14.00;77.98;99397.72;5132834;27;20121;-76
2021/08/26 01:35:28;;;;;;;24.20;9.63;;;;;;;13.99;78.15;99392.56;5132993;28;20043;-75
2021/08/26 01:37:54;;;;;;;25.52;10.32;;;;;;;14.00;77.94;99397.72;5127512;28;20036;-76
2021/08/26 01:40:32;;;;;;;29.38;9.85;;;;;;;14.01;78.02;99391.41;5111700;28;20035;-78
2021/08/26 01:42:59;;;;;;;20.15;8.82;;;;;;;14.03;77.57;99400.09;5111349;28;20044;-78
2021/08/26 01:45:25;;;;;;;22.10;9.45;;;;;;;14.03;77.73;99388.59;5112479;28;20035;-79
2021/08/26 01:47:51;;;;;;;22.25;9.30;;;;;;;14.01;78.04;99388.75;5112033;28;20055;-78
2021/08/26 01:50:17;;;;;;;28.50;9.35;;;;;;;13.99;78.16;99382.75;5111594;28;20039;-76
2021/08/26 01:52:42;;;;;;;24.83;9.27;;;;;;;13.98;78.28;99380.22;5112003;28;20087;-80
2021/08/26 01:55:08;;;;;;;24.70;9.73;;;;;;;14.00;77.70;99379.09;5111848;28;20464;-75
2021/08/26 01:57:34;;;;;;;24.45;9.63;;;;;;;13.97;78.24;99383.88;5115459;28;20058;-76
2021/08/26 02:00:04;;;;;;;31.02;10.52;;;;;;;13.98;77.97;99389.06;5116523;28;20484;-79
2021/08/26 02:02:30;;;;;;;26.20;9.40;;;;;;;13.98;77.94;99386.41;5116547;27;20126;-76
2021/08/26 02:04:56;;;;;;;29.58;8.50;;;;;;;14.01;77.78;99386.09;5113875;28;20630;-75
2021/08/26 02:07:22;;;;;;;27.77;9.15;;;;;;;14.06;77.53;99378.50;5114458;28;20046;-74
2021/08/26 02:09:48;;;;;;;24.88;9.30;;;;;;;14.10;77.46;99383.56;5115024;28;20081;-74
2021/08/26 02:12:13;;;;;;;25.30;9.07;;;;;;;14.08;77.32;99376.56;5114705;28;20054;-75
2021/08/26 02:14:39;;;;;;;19.85;9.20;;;;;;;14.09;77.56;99382.69;5114817;28;20044;-76
2021/08/26 02:17:05;;;;;;;26.08;10.25;;;;;;;14.10;77.37;99387.03;5116465;28;20101;-78
2021/08/26 02:19:31;;;;;;;21.27;8.82;;;;;;;14.11;77.33;99383.38;5115704;28;20043;-77
2021/08/26 02:21:57;;;;;;;27.08;9.43;;;;;;;14.12;77.07;99384.22;5115632;28;20043;-75
2021/08/26 02:24:22;;;;;;;36.35;10.13;;;;;;;14.12;77.16;99386.88;5115698;27;20389;-76
2021/08/26 02:26:48;;;;;;;31.58;9.18;;;;;;;14.15;77.00;99402.56;5113115;28;20036;-77
2021/08/26 02:29:14;;;;;;;29.15;8.73;;;;;;;14.18;76.79;99394.25;5114795;28;20052;-76
2021/08/26 02:31:40;;;;;;;23.63;9.40;;;;;;;14.28;76.54;99404.84;5115384;28;20043;-77
2021/08/26 02:34:06;;;;;;;25.23;9.15;;;;;;;14.37;75.82;99403.97;5116063;27;20050;-77
2021/08/26 02:36:31;;;;;;;21.17;8.95;;;;;;;14.38;75.69;99403.81;5114497;27;20046;-79
2021/08/26 02:38:57;;;;;;;19.35;8.77;;;;;;;14.39;75.70;99407.31;5129898;27;20457;-77
2021/08/26 02:41:24;;;;;;;18.58;8.68;;;;;;;14.39;75.60;99412.63;5134187;27;20076;-75
2021/08/26 02:43:49;;;;;;;17.15;8.48;;;;;;;14.33;75.66;99410.56;5135631;27;20495;-76
2021/08/26 02:46:15;;;;;;;18.45;9.15;;;;;;;14.31;75.76;99412.56;5136236;27;20051;-76
2021/08/26 02:48:41;;;;;;;20.45;9.27;;;;;;;14.26;75.96;99420.16;5135668;27;20039;-76
2021/08/26 02:51:08;;;;;;;24.33;9.57;;;;;;;14.21;76.20;99408.09;5136437;27;20091;-79
2021/08/26 02:53:34;;;;;;;19.85;9.43;;;;;;;14.16;76.02;99401.56;5135757;27;20046;-79
2021/08/26 02:55:59;;;;;;;20.35;9.70;;;;;;;14.14;76.43;99406.19;5135801;27;20043;-75
2021/08/26 02:58:25;;;;;;;23.88;10.27;;;;;;;14.12;76.55;99405.50;5135621;27;20039;-78
2021/08/26 03:00:51;;;;;;;19.67;9.70;;;;;;;14.11;76.79;99409.16;5135739;27;20077;-75
2021/08/26 03:03:17;;;;;;;24.27;9.68;;;;;;;14.13;76.63;99409.84;5134918;27;20070;-77
2021/08/26 03:05:43;;;;;;;20.88;10.07;;;;;;;14.14;76.54;99406.19;5134134;27;20204;-75
2021/08/26 03:08:09;;;;;;;23.17;10.68;;;;;;;14.19;76.62;99407.44;5134316;27;20566;-75
2021/08/26 03:10:34;;;;;;;16.77;9.55;;;;;;;14.26;76.30;99404.19;5133077;27;20452;-74
2021/08/26 03:13:00;;;;;;;23.02;9.82;;;;;;;14.25;76.28;99406.00;5134008;27;20050;-74
2021/08/26 03:15:26;;;;;;;33.55;9.75;;;;;;;14.29;76.23;99409.19;5133421;27;20050;-76
2021/08/26 03:17:52;;;;;;;22.45;9.18;;;;;;;14.31;75.76;99393.94;5132876;27;20044;-78
2021/08/26 03:20:20;;;;;;;29.23;9.70;;;;;;;14.33;75.78;99391.94;5133584;27;20135;-75
2021/08/26 03:22:49;;;;;;;23.08;9.75;;;;;;;14.35;75.82;99398.78;5133770;27;20043;-79
2021/08/26 03:25:15;;;;;;;24.52;10.13;;;;;;;14.32;75.96;99399.09;5133553;27;20508;-74
2021/08/26 03:27:41;;;;;;;20.35;9.23;;;;;;;14.31;75.86;99405.38;5133424;27;20055;-73
2021/08/26 03:30:08;;;;;;;29.00;9.65;;;;;;;14.28;76.06;99402.19;5133932;27;20117;-74
2021/08/26 03:32:35;;;;;;;27.48;11.07;;;;;;;14.30;76.20;99409.03;5133755;27;20045;-76
2021/08/26 03:35:01;;;;;;;24.38;10.88;;;;;;;14.30;75.95;99409.03;5133328;27;20043;-77
2021/08/26 03:37:27;;;;;;;17.67;9.07;;;;;;;14.32;75.91;99412.41;5133774;27;20039;-73
2021/08/26 03:39:52;;;;;;;20.10;9.57;;;;;;;14.31;75.97;99418.69;5133420;27;20035;-75
2021/08/26 03:42:18;;;;;;;21.85;9.10;;;;;;;14.21;75.99;99413.44;5133944;27;20062;-75
2021/08/26 03:44:44;;;;;;;18.60;8.73;;;;;;;14.22;76.23;99414.28;5132564;27;20099;-75
2021/08/26 03:47:10;;;;;;;21.05;9.40;;;;;;;14.23;76.32;99406.16;5133769;27;20046;-74
2021/08/26 03:49:36;;;;;;;18.35;9.43;;;;;;;14.32;76.31;99415.06;5133875;27;20159;-76
2021/08/26 03:52:03;;;;;;;20.20;9.13;;;;;;;14.32;75.98;99415.06;5132967;27;20125;-76
2021/08/26 03:54:47;;;;;;;19.13;8.15;;;;;;;14.40;75.77;99422.28;5131083;27;20108;-75
2021/08/26 03:57:13;;;;;;;15.60;8.70;;;;;;;14.43;75.53;99423.81;5132707;27;20106;-74
2021/08/26 03:59:39;;;;;;;19.38;9.55;;;;;;;14.40;75.40;99424.94;5133459;27;20130;-75
2021/08/26 04:02:05;;;;;;;17.08;8.52;;;;;;;14.47;75.60;99417.22;5134136;27;20551;-73
2021/08/26 04:04:31;;;;;;;16.98;8.50;;;;;;;14.47;75.37;99422.53;5134278;27;20035;-75
2021/08/26 04:06:56;;;;;;;20.95;8.98;;;;;;;14.59;75.17;99420.50;5134497;27;20080;-78
2021/08/26 04:09:22;;;;;;;17.17;8.43;;;;;;;14.66;74.66;99425.09;5135498;27;20046;-77
2021/08/26 04:11:48;;;;;;;18.00;9.52;;;;;;;14.70;74.68;99434.47;5134661;27;20046;-78
2021/08/26 04:14:14;;;;;;;16.63;8.90;;;;;;;14.75;74.39;99425.19;5135682;27;20061;-77
2021/08/26 04:16:40;;;;;;;16.02;8.60;;;;;;;14.73;74.65;99425.34;5135257;27;20099;-77
2021/08/26 04:19:05;;;;;;;14.25;8.60;;;;;;;14.74;74.47;99420.84;5132988;27;20118;-75
2021/08/26 04:21:32;;;;;;;16.73;8.70;;;;;;;14.81;74.32;99421.91;5133428;27;20130;-76
2021/08/26 04:23:58;;;;;;;17.88;9.20;;;;;;;14.87;74.20;99426.63;5132796;27;20039;-78
2021/08/26 04:26:23;;;;;;;17.13;9.43;;;;;;;14.98;73.95;99430.88;5133387;27;20039;-74
2021/08/26 04:28:49;;;;;;;16.08;8.70;;;;;;;15.01;73.40;99431.41;5132577;27;20129;-77
2021/08/26 04:31:15;;;;;;;15.95;8.60;;;;;;;15.06;73.36;99427.47;5132750;27;20039;-76
2021/08/26 04:33:41;;;;;;;14.48;8.82;;;;;;;15.08;73.35;99430.78;5132829;27;20047;-77
2021/08/26 04:36:07;;;;;;;15.48;9.23;;;;;;;14.99;73.54;99436.06;5132805;27;20043;-77
2021/08/26 04:38:33;;;;;;;19.52;9.30;;;;;;;15.01;73.88;99425.25;5133080;27;20536;-78
2021/08/26 04:40:58;;;;;;;18.23;9.45;;;;;;;15.10;73.65;99423.47;5133028;27;20043;-77
2021/08/26 04:43:24;;;;;;;18.25;9.90;;;;;;;15.25;73.19;99427.25;5132758;27;20039;-79
2021/08/26 04:45:50;;;;;;;18.98;9.52;;;;;;;15.28;72.93;99426.97;5133060;27;20065;-76
2021/08/26 04:48:16;;;;;;;18.00;9.95;;;;;;;15.33;72.75;99421.19;5132791;27;20058;-74
2021/08/26 04:50:41;;;;;;;13.90;8.55;;;;;;;15.36;72.66;99420.84;5132734;27;20104;-80
2021/08/26 04:53:07;;;;;;;15.90;8.82;;;;;;;15.36;72.88;99415.53;5131625;27;20043;-76
2021/08/26 04:55:33;;;;;;;18.63;9.35;;;;;;;15.49;72.51;99423.13;5132529;27;20043;-78
2021/08/26 04:57:59;;;;;;;16.05;8.52;;;;;;;15.56;71.98;99429.47;5130912;27;20047;-74
2021/08/26 05:00:25;;;;;;;19.83;8.63;;;;;;;16.43;70.13;99424.06;5132748;27;20100;-77
2021/08/26 05:02:50;;;;;;;20.88;8.50;;;;;;;17.89;65.66;99429.78;5132630;27;20066;-77
2021/08/26 05:05:16;;;;;;;23.25;8.60;;;;;;;18.46;62.99;99427.91;5132675;27;20046;-81
2021/08/26 05:07:42;;;;;;;17.38;7.65;;;;;;;19.30;60.62;99432.53;5131227;28;20043;-79
2021/08/26 05:10:08;;;;;;;18.42;7.93;;;;;;;18.75;61.29;99429.88;5130595;28;20043;-75
2021/08/26 05:12:34;;;;;;;14.43;8.93;;;;;;;17.85;63.46;99437.31;5132383;27;20093;-76
2021/08/26 05:15:00;;;;;;;20.13;8.45;;;;;;;17.28;65.67;99432.88;5132872;28;20043;-81
2021/08/26 05:17:26;;;;;;;15.38;8.57;;;;;;;16.82;66.91;99441.34;5132858;27;20050;-79
2021/08/26 05:19:52;;;;;;;19.23;8.77;;;;;;;16.65;67.77;99441.31;5132891;28;20069;-79
2021/08/26 05:22:17;;;;;;;15.77;8.57;;;;;;;16.65;67.94;99441.31;5133385;27;20043;-77
2021/08/26 05:24:43;;;;;;;17.98;8.90;;;;;;;16.48;68.60;99445.78;5132393;28;20046;-79
2021/08/26 05:27:09;;;;;;;17.83;8.55;;;;;;;16.40;68.66;99455.59;5132055;27;20128;-80
2021/08/26 05:29:35;;;;;;;17.08;7.90;;;;;;;16.28;69.08;99458.56;5132323;27;20055;-77
2021/08/26 05:32:01;;;;;;;16.10;8.27;;;;;;;16.18;69.55;99464.00;5133877;27;20107;-77
2021/08/26 05:34:28;;;;;;;21.05;8.95;;;;;;;16.33;69.39;99458.91;5118251;27;20043;-80
2021/08/26 05:36:54;;;;;;;18.23;8.93;;;;;;;16.44;69.24;99464.97;5135199;27;20031;-77
2021/08/26 05:39:20;;;;;;;18.25;8.77;;;;;;;16.40;69.02;99468.94;5118202;27;20047;-78
2021/08/26 05:41:46;;;;;;;17.35;8.85;;;;;;;16.34;69.92;99465.09;5114575;28;20102;-78
2021/08/26 05:44:17;;;;;;;19.35;8.90;;;;;;;16.23;69.59;99460.88;5115495;27;20092;-81
2021/08/26 05:46:44;;;;;;;15.93;8.20;;;;;;;16.16;70.05;99455.34;5097750;28;20047;-76
2021/08/26 05:49:13;;;;;;;20.33;9.10;;;;;;;16.33;69.69;99464.25;5114960;28;20077;-77
2021/08/26 05:51:39;;;;;;;17.40;9.63;;;;;;;16.57;69.27;99456.50;5116117;28;20484;-78
2021/08/26 05:54:05;;;;;;;16.23;8.93;;;;;;;16.90;68.27;99446.72;5097193;28;20051;-76
2021/08/26 05:56:30;;;;;;;16.92;8.48;;;;;;;17.30;67.23;99461.13;5115976;28;20039;-78
2021/08/26 05:58:56;;;;;;;24.50;8.43;;;;;;;17.68;65.37;99462.44;5116630;27;20036;-79
2021/08/26 06:01:27;;;;;;;15.35;8.07;;;;;;;17.53;65.73;99471.13;5081204;28;20043;-76
2021/08/26 06:03:53;;;;;;;19.35;8.65;;;;;;;17.82;65.06;99464.41;5116000;28;20044;-78
2021/08/26 06:06:20;;;;;;;16.23;8.18;;;;;;;18.10;64.54;99456.00;5116566;28;20047;-76
2021/08/26 06:08:46;;;;;;;18.27;9.13;;;;;;;18.88;62.26;99454.25;5115731;28;20052;-76
2021/08/26 06:11:12;;;;;;;19.90;9.43;;;;;;;18.98;61.33;99458.56;5115513;28;20135;-77
2021/08/26 06:13:37;;;;;;;17.08;8.48;;;;;;;18.77;61.69;99473.44;5097684;28;20373;-79
2021/08/26 06:16:03;;;;;;;20.02;11.13;;;;;;;18.39;62.91;99471.44;5116197;28;20078;-78
2021/08/26 06:18:30;;;;;;;19.13;11.00;;;;;;;18.56;62.50;99482.91;5115477;28;20063;-77
2021/08/26 06:20:56;;;;;;;24.98;15.02;;;;;;;18.76;61.83;99480.63;5115728;27;20112;-79
2021/08/26 06:23:22;;;;;;;23.70;8.55;;;;;;;19.22;60.66;99482.50;5115045;28;20472;-78
2021/08/26 06:25:48;;;;;;;21.55;11.30;;;;;;;19.53;59.91;99478.91;5114929;28;20044;-81
2021/08/26 06:28:14;;;;;;;22.15;10.73;;;;;;;20.48;57.43;99481.94;5114918;28;20070;-76
2021/08/26 06:30:40;;;;;;;22.77;11.13;;;;;;;20.32;56.92;99477.59;5114844;28;20035;-77
2021/08/26 06:33:06;;;;;;;25.65;10.40;;;;;;;19.62;58.64;99476.16;5115038;28;20039;-77
2021/08/26 06:35:32;;;;;;;18.58;10.45;;;;;;;19.26;60.18;99474.94;5115444;28;20043;-80
2021/08/26 06:37:58;;;;;;;21.73;9.75;;;;;;;19.77;59.21;99474.31;5121552;27;20043;-79
2021/08/26 06:40:24;;;;;;;20.25;8.18;;;;;;;20.03;57.75;99486.50;5135878;27;20138;-77
2021/08/26 06:42:50;;;;;;;18.30;8.15;;;;;;;19.32;59.11;99497.53;5134064;27;20130;-77
2021/08/26 06:45:15;;;;;;;15.43;8.52;;;;;;;18.67;61.39;99488.91;5136917;27;20046;-81
2021/08/26 06:47:41;;;;;;;14.98;8.30;;;;;;;18.27;63.00;99489.72;5136249;27;20043;-76
2021/08/26 06:50:07;;;;;;;15.40;9.07;;;;;;;18.09;63.74;99487.28;5136353;27;20043;-86
2021/08/26 06:52:33;;;;;;;15.02;8.02;;;;;;;18.07;64.07;99493.81;5133968;27;20488;-76
2021/08/26 06:54:59;;;;;;;16.23;8.20;;;;;;;17.90;64.42;99493.81;5135772;27;20047;-80
2021/08/26 06:57:27;;;;;;;16.35;8.40;;;;;;;17.86;64.51;99497.84;5136774;27;20126;-81
2021/08/26 06:59:56;;;;;;;16.77;8.50;;;;;;;18.84;62.60;99492.31;5135415;27;20470;-80
2021/08/26 07:02:22;;;;;;;17.40;8.32;;;;;;;21.40;55.75;99490.38;5135967;27;20523;-79
2021/08/26 07:04:48;;;;;;;14.52;7.57;;;;;;;22.57;51.91;99496.13;5135240;27;20050;-80
2021/08/26 07:07:14;;;;;;;16.75;8.52;;;;;;;22.01;52.72;99486.28;5134061;27;20043;-81
2021/08/26 07:09:39;;;;;;;15.38;8.05;;;;;;;21.93;53.27;99489.13;5136515;27;20041;-80
2021/08/26 07:12:05;;;;;;;15.32;8.32;;;;;;;21.67;53.89;99501.41;5133734;27;20395;-78
2021/08/26 07:14:31;;;;;;;16.58;8.85;;;;;;;20.95;55.28;99497.81;5135490;27;20050;-79
2021/08/26 07:16:57;;;;;;;15.75;8.57;;;;;;;20.39;56.42;99507.25;5136332;27;20043;-80
2021/08/26 07:19:23;;;;;;;15.02;9.07;;;;;;;20.50;57.00;99503.25;5135889;27;20134;-79
2021/08/26 07:21:49;;;;;;;14.73;8.75;;;;;;;21.40;54.91;99509.22;5137606;27;20039;-79
2021/08/26 07:24:15;;;;;;;17.70;9.40;;;;;;;21.20;55.04;99508.16;5119261;27;20062;-81
2021/08/26 07:26:42;;;;;;;12.35;8.55;;;;;;;23.13;51.12;99501.47;5135801;27;20125;-79
2021/08/26 07:29:09;;;;;;;18.33;9.38;;;;;;;24.54;47.02;99497.63;5134677;27;20051;-79
2021/08/26 07:31:35;;;;;;;17.23;8.88;;;;;;;26.17;44.06;99512.56;5135065;27;20043;-78
2021/08/26 07:34:00;;;;;;;19.55;9.27;;;;;;;26.81;42.64;99512.25;5134561;27;20122;-77
2021/08/26 07:36:26;;;;;;;18.05;9.57;;;;;;;27.42;40.23;99510.34;5134381;27;20054;-80
2021/08/26 07:38:52;;;;;;;16.52;8.85;;;;;;;28.24;39.15;99510.63;5102780;28;20036;-77
2021/08/26 07:41:19;;;;;;;20.10;9.65;;;;;;;27.90;39.80;99524.81;5114433;28;20523;-79
2021/08/26 07:43:44;;;;;;;17.60;9.30;;;;;;;28.63;38.32;99520.94;5115238;28;20047;-79
2021/08/26 07:46:11;;;;;;;15.30;8.88;;;;;;;29.03;37.26;99525.53;5114424;28;20046;-77
2021/08/26 07:48:38;;;;;;;16.83;9.23;;;;;;;29.09;36.86;99521.03;5113816;28;20044;-78
2021/08/26 07:51:04;;;;;;;16.35;8.93;;;;;;;28.18;38.43;99531.41;5115612;28;20076;-78
2021/08/26 07:53:34;;;;;;;13.60;8.85;;;;;;;25.38;43.22;99545.53;5113523;28;20043;-78
2021/08/26 07:56:01;;;;;;;17.50;9.95;;;;;;;23.71;47.73;99542.28;5114921;28;20043;-80
2021/08/26 07:58:29;;;;;;;15.93;9.48;;;;;;;23.08;49.38;99538.00;5095781;28;20047;-81
2021/08/26 08:00:56;;;;;;;21.92;10.05;;;;;;;23.51;49.42;99534.13;5113513;28;20043;-81
2021/08/26 08:03:21;;;;;;;14.33;9.27;;;;;;;23.16;50.13;99536.19;5113038;28;20608;-86
2021/08/26 08:05:47;;;;;;;17.23;9.52;;;;;;;22.57;51.85;99539.28;5113879;28;20281;-81
2021/08/26 08:08:13;;;;;;;20.17;10.07;;;;;;;22.32;53.08;99533.53;5114388;28;20896;-81
2021/08/26 08:10:39;;;;;;;16.38;9.65;;;;;;;22.25;53.19;99540.72;5080500;28;20453;-81
2021/08/26 08:13:05;;;;;;;15.90;8.85;;;;;;;22.37;53.63;99535.59;5080140;28;20036;-81
2021/08/26 08:15:31;;;;;;;16.23;9.55;;;;;;;21.88;54.78;99537.38;5096921;28;20415;-80
2021/08/26 08:17:57;;;;;;;19.52;10.10;;;;;;;21.67;55.79;99531.00;5115904;28;20043;-81
2021/08/26 08:20:23;;;;;;;19.88;10.43;;;;;;;21.79;55.42;99542.91;5114026;28;20040;-78
2021/08/26 08:22:49;;;;;;;17.35;10.98;;;;;;;21.73;55.77;99541.00;5079920;28;20559;-82
2021/08/26 08:25:15;;;;;;;20.02;11.15;;;;;;;21.61;55.81;99550.63;5113063;28;20419;-77
2021/08/26 08:27:41;;;;;;;20.48;12.43;;;;;;;21.56;56.24;99536.88;5114647;28;20055;-80
2021/08/26 08:30:07;;;;;;;21.33;11.30;;;;;;;21.53;56.95;99545.34;5113722;28;20051;-79
2021/08/26 08:32:33;;;;;;;20.90;11.50;;;;;;;21.13;57.79;99546.63;5098584;28;20567;-79
2021/08/26 08:34:59;;;;;;;22.48;11.65;;;;;;;20.89;58.61;99560.41;5112724;28;20120;-78
2021/08/26 08:37:25;;;;;;;17.42;12.38;;;;;;;20.73;59.16;99546.13;5115925;27;20126;-79
2021/08/26 08:39:51;;;;;;;21.50;12.45;;;;;;;20.79;59.32;99547.25;5134977;27;20093;-78
2021/08/26 08:42:20;;;;;;;20.88;12.32;;;;;;;20.57;59.53;99555.22;5117781;27;20463;-79
2021/08/26 08:44:46;;;;;;;22.75;12.38;;;;;;;20.55;60.17;99553.72;5135313;27;20087;-81
2021/08/26 08:47:13;;;;;;;20.57;12.13;;;;;;;20.37;60.49;99552.25;5133069;27;20047;-80
2021/08/26 08:50:00;;;;;;;20.67;12.77;;;;;;;20.20;61.48;99565.06;5133305;27;20376;-82
2021/08/26 08:52:26;;;;;;;18.48;12.95;;;;;;;19.92;62.77;99562.94;5133485;27;20039;-79
2021/08/26 08:54:53;;;;;;;20.58;12.45;;;;;;;20.08;63.23;99556.59;5133286;27;20127;-80
2021/08/26 08:57:20;;;;;;;20.63;13.18;;;;;;;20.42;62.36;99549.03;5134590;27;20485;-78
2021/08/26 08:59:46;;;;;;;22.83;13.57;;;;;;;20.47;62.17;99555.50;5134093;27;20431;-79
2021/08/26 09:02:12;;;;;;;16.85;12.55;;;;;;;20.27;63.45;99551.72;5098759;27;20094;-80
2021/08/26 09:04:55;;;;;;;23.92;12.35;;;;;;;20.34;63.73;99556.16;5116438;27;20154;-78
2021/08/26 09:07:28;;;;;;;21.05;12.30;;;;;;;20.15;64.17;99562.91;5134031;27;20043;-81
2021/08/26 09:09:55;;;;;;;17.70;11.63;;;;;;;19.95;65.52;99557.22;5133559;27;20046;-77
2021/08/26 09:12:41;;;;;;;20.42;12.50;;;;;;;19.77;66.30;99557.53;5097450;28;20066;-79
2021/08/26 09:15:30;;;;;;;19.05;12.00;;;;;;;19.69;67.17;99560.28;5133652;28;20051;-77
2021/08/26 09:18:16;;;;;;;21.67;12.77;;;;;;;19.51;67.82;99563.28;5132657;28;20035;-79
2021/08/26 09:20:52;;;;;;;22.27;13.63;;;;;;;19.53;68.18;99563.94;5114483;28;20051;-79
2021/08/26 09:23:19;;;;;;;20.13;12.95;;;;;;;19.52;68.69;99565.75;5133578;27;20035;-79
2021/08/26 09:25:45;;;;;;;23.83;14.57;;;;;;;19.50;69.03;99559.75;5132383;28;20134;-77
2021/08/26 09:28:25;;;;;;;21.80;14.80;;;;;;;19.54;69.12;99561.06;5132359;28;20035;-76
2021/08/26 09:31:10;;;;;;;26.08;15.07;;;;;;;19.62;69.05;99562.03;5133748;27;20046;-79
2021/08/26 09:34:04;;;;;;;26.10;15.95;;;;;;;19.55;69.20;99557.38;5133337;27;20131;-79
2021/08/26 09:36:34;;;;;;;26.02;16.25;;;;;;;19.71;69.09;99572.50;5133987;28;20517;-76
2021/08/26 09:39:14;;;;;;;27.15;16.83;;;;;;;19.65;69.34;99567.88;5118034;27;20059;-77
2021/08/26 09:41:43;;;;;;;22.52;15.50;;;;;;;19.90;69.05;99570.38;5078997;28;20686;-81
2021/08/26 09:44:21;;;;;;;27.60;16.98;;;;;;;19.94;68.23;99568.97;5112647;28;20044;-81
2021/08/26 09:46:49;;;;;;;23.30;16.20;;;;;;;19.95;68.08;99567.13;5077735;28;20488;-79
2021/08/26 09:49:18;;;;;;;24.63;16.35;;;;;;;19.79;68.64;99576.97;5078564;28;20031;-78
2021/08/26 09:51:44;;;;;;;23.17;15.90;;;;;;;19.68;68.92;99574.72;5115836;28;20075;-80
2021/08/26 09:54:32;;;;;;;26.75;15.90;;;;;;;19.50;69.83;99575.88;5079683;28;20042;-81
2021/08/26 09:56:58;;;;;;;25.90;15.68;;;;;;;19.56;69.60;99572.47;5111948;28;20042;-81
2021/08/26 09:59:48;;;;;;;25.25;16.50;;;;;;;19.63;69.58;99574.44;5113661;28;20040;-78
2021/08/26 10:02:14;;;;;;;21.70;14.95;;;;;;;19.52;69.98;99571.13;5096623;28;20031;-80
2021/08/26 10:04:41;;;;;;;26.98;16.65;;;;;;;19.62;70.49;99578.13;5096272;28;20138;-79
2021/08/26 10:07:07;;;;;;;23.42;15.70;;;;;;;19.77;70.39;99575.47;5113389;28;20055;-81
2021/08/26 10:09:34;;;;;;;25.67;15.70;;;;;;;20.00;69.08;99570.09;5077827;28;20047;-82
2021/08/26 10:12:00;;;;;;;25.63;16.00;;;;;;;20.20;68.45;99576.63;5094231;28;20095;-80
2021/08/26 10:14:26;;;;;;;24.00;16.95;;;;;;;20.67;66.90;99571.03;5094326;28;20088;-77
2021/08/26 10:16:52;;;;;;;24.38;17.38;;;;;;;21.01;65.43;99575.03;5111931;28;20126;-81
2021/08/26 10:19:18;;;;;;;24.80;18.60;;;;;;;21.53;63.46;99569.56;5114598;28;20143;-77
2021/08/26 10:21:44;;;;;;;30.58;20.15;;;;;;;22.14;62.05;99564.50;5116018;28;20051;-82
2021/08/26 10:24:14;;;;;;;28.53;19.40;;;;;;;22.44;60.49;99569.69;5114670;28;20043;-78
2021/08/26 10:26:45;;;;;;;26.52;18.33;;;;;;;22.28;60.65;99575.34;5116844;28;20281;-84
2021/08/26 10:29:13;;;;;;;26.83;18.67;;;;;;;22.01;61.82;99572.47;5114862;28;20515;-80
2021/08/26 10:31:39;;;;;;;27.05;18.25;;;;;;;21.89;62.23;99572.16;5115707;28;20172;-77
2021/08/26 10:34:19;;;;;;;27.20;17.88;;;;;;;21.37;63.28;99582.25;5116663;28;20606;-78
2021/08/26 10:37:18;;;;;;;26.80;18.98;;;;;;;21.26;63.71;99582.72;5099470;28;20088;-79
2021/08/26 10:39:45;;;;;;;31.95;19.15;;;;;;;20.93;64.71;99578.63;5115114;28;20047;-78
2021/08/26 10:42:22;;;;;;;29.43;20.30;;;;;;;20.80;65.12;99575.81;5117029;28;20107;-80
2021/08/26 10:44:59;;;;;;;27.67;19.42;;;;;;;21.00;65.39;99565.28;5116463;28;20292;-79
2021/08/26 10:47:48;;;;;;;29.95;20.60;;;;;;;21.12;65.65;99576.38;5116658;28;20051;-77
2021/08/26 10:50:27;;;;;;;31.50;19.90;;;;;;;21.04;65.27;99582.69;5116130;28;20690;-79
2021/08/26 10:53:00;;;;;;;35.97;21.48;;;;;;;20.99;65.56;99580.56;5115778;28;20043;-78
2021/08/26 10:55:41;;;;;;;31.50;22.55;;;;;;;20.95;65.26;99578.47;5116732;28;20047;-78
2021/08/26 10:58:22;;;;;;;34.53;21.10;;;;;;;20.73;66.06;99586.47;5084311;28;20092;-78
2021/08/26 11:01:03;;;;;;;33.00;20.80;;;;;;;20.47;67.21;99578.84;5115215;28;20446;-79
2021/08/26 11:03:32;;;;;;;32.17;21.52;;;;;;;20.46;67.55;99572.66;5098058;28;20037;-76
2021/08/26 11:06:22;;;;;;;34.08;21.30;;;;;;;20.41;67.61;99575.06;5114751;28;20093;-78
2021/08/26 11:08:54;;;;;;;31.67;21.00;;;;;;;20.23;68.38;99577.28;5115176;28;20134;-79
2021/08/26 11:11:27;;;;;;;31.58;20.08;;;;;;;20.01;69.24;99577.13;5115685;28;20408;-79
2021/08/26 11:13:55;;;;;;;31.10;19.95;;;;;;;19.96;69.94;99574.16;5117144;28;20040;-78
2021/08/26 11:16:24;;;;;;;32.60;20.60;;;;;;;19.86;70.00;99575.25;5098512;28;20044;-80
2021/08/26 11:18:58;;;;;;;29.75;20.73;;;;;;;19.81;70.44;99571.41;5100864;28;20719;-78
2021/08/26 11:24:10;;;;;;;26.88;18.85;;;;;;;19.65;70.74;99575.91;5115902;28;20073;-78
2021/08/26 11:26:48;;;;;;;;;;;;;;;19.68;71.18;99577.41;5114647;28;20061;-81
2021/08/26 11:29:23;;;;;;;31.77;20.00;;;;;;;19.71;71.07;99577.03;5113125;28;19928;-77
2021/08/26 11:31:55;;;;;;;29.23;20.52;;;;;;;19.73;71.24;99580.38;5096081;28;20089;-79